レシフェ の空港の天気 - METARとTAF

レシフェ・グアララペス国際空港 ( SBRF / REC ) - ブラジル ペルナンブーコ州レシフェ
飛行場実況気象(Metar)
観測時間07/16 03:00 BRT (07/16 06:00 UTC)
風向・風速南西 1m/s
視程10km以上
天気現象
全天の4割程度の雲 雲底高度 760m
全天の4割程度の雲 雲底高度 1830m
気温21℃
湿度88%
気圧1017hPa
METARSBRF 160600Z 23002KT 9999 SCT025 SCT060 21/19 Q1017
過去の天気等 Google飛行場航空写真 Wunderground天気予報

過去48時間のMETAR

飛行場予報(TAF)
発表時間: 7/15 23:30 BRT (7/16 02:30 UTC)
予報対象時間: 16日3時 BRT ~ 17日3時 BRT
風向・風速南 4m/s
視程8000m
全天の4割程度の雲 雲底高度 610m
16日7時 BRT ~ 16日9時 BRT に徐々に
風向・風速南南東 6m/s
TAF SBRF 160230Z 1606/1706 18008KT 8000 SCT020 TN22/1608Z TX28/1615Z
BECMG 1610/1612 15012KT RMK PCH